Time;durP1;ratioP1;P1;durP2;ratioP2;P2;SDS_P1;SDS_P2;PMS_P1;PMS_P2;Temp;Humidity;BMP_temperature;BMP_pressure;BME280_temperature;BME280_humidity;BME280_pressure;Samples;Min_cycle;Max_cycle;Signal;HPM_P1;HPM_P2
2022/08/26 00:00:57;;;;;;;;;;;;;;;;;;2106680;28;19939;-44
2022/08/26 00:01:58;;;;;;;;;;;;;;;;;;2106643;28;19936;-48
2022/08/26 00:02:59;;;;;;;;;;;;;;;;;;2106771;28;19924;-44
2022/08/26 00:04:00;;;;;;;;;;;;;;;;;;2106501;28;19924;-45
2022/08/26 00:05:01;;;;;;;;;;;;;;;;;;2106529;28;19974;-44
2022/08/26 00:06:02;;;;;;;;;;;;;;;;;;2106638;28;20020;-43
2022/08/26 00:07:03;;;;;;;;;;;;;;;;;;2106440;28;19924;-44
2022/08/26 00:08:04;;;;;;;;;;;;;;;;;;2106480;28;19975;-45
2022/08/26 00:09:04;;;;;;;;;;;;;;;;;;2106642;28;19971;-45
2022/08/26 00:10:05;;;;;;;;;;;;;;;;;;2106685;28;19925;-45
2022/08/26 00:11:06;;;;;;;;;;;;;;;;;;2106288;28;19924;-44
2022/08/26 00:12:08;;;;;;;;;;;;;;;;;;2106412;28;19924;-45
2022/08/26 00:13:09;;;;;;;;;;;;;;;;;;2106518;28;20387;-45
2022/08/26 00:14:10;;;;;;;;;;;;;;;;;;2106399;28;19928;-44
2022/08/26 00:15:11;;;;;;;;;;;;;;;;;;2106502;28;20018;-44
2022/08/26 00:16:12;;;;;;;;;;;;;;;;;;2106483;28;19931;-44
2022/08/26 00:17:13;;;;;;;;;;;;;;;;;;2106412;28;20037;-45
2022/08/26 00:18:14;;;;;;;;;;;;;;;;;;2106523;28;20030;-48
2022/08/26 00:19:22;;;;;;;;;;;;;;;;;;2106639;28;19966;-44
2022/08/26 00:20:23;;;;;;;;;;;;;;;;;;2106173;28;20014;-44
2022/08/26 00:21:24;;;;;;;;;;;;;;;;;;2106480;28;19934;-44
2022/08/26 00:22:25;;;;;;;;;;;;;;;;;;2106441;28;19973;-44
2022/08/26 00:23:26;;;;;;;;;;;;;;;;;;2106474;28;19928;-45
2022/08/26 00:24:27;;;;;;;;;;;;;;;;;;2106399;28;20365;-45
2022/08/26 00:25:28;;;;;;;;;;;;;;;;;;2106651;28;19953;-47
2022/08/26 00:26:29;;;;;;;;;;;;;;;;;;2106553;28;19924;-45
2022/08/26 00:27:32;;;;;;;;;;;;;;;;;;2106686;28;19924;-46
2022/08/26 00:28:33;;;;;;;;;;;;;;;;;;2106535;28;20003;-44
2022/08/26 00:29:34;;;;;;;;;;;;;;;;;;2106262;28;20411;-44
2022/08/26 00:30:38;;;;;;;;;;;;;;;;;;2106546;28;19925;-44
2022/08/26 00:31:39;;;;;;;;;;;;;;;;;;2106312;28;19932;-44
2022/08/26 00:32:40;;;;;;;;;;;;;;;;;;2106474;28;20018;-45
2022/08/26 00:33:41;;;;;;;;;;;;;;;;;;2106341;28;20007;-44
2022/08/26 00:34:42;;;;;;;;;;;;;;;;;;2106531;28;20015;-44
2022/08/26 00:35:43;;;;;;;;;;;;;;;;;;2106504;28;19947;-44
2022/08/26 00:36:45;;;;;;;;;;;;;;;;;;2106272;28;19924;-45
2022/08/26 00:37:46;;;;;;;;;;;;;;;;;;2106523;28;19931;-45
2022/08/26 00:38:47;;;;;;;;;;;;;;;;;;2106337;28;19924;-44
2022/08/26 00:39:48;;;;;;;;;;;;;;;;;;2106525;28;20040;-45
2022/08/26 00:40:49;;;;;;;;;;;;;;;;;;2106442;28;19935;-45
2022/08/26 00:41:50;;;;;;;;;;;;;;;;;;2106216;28;19924;-44
2022/08/26 00:42:51;;;;;;;;;;;;;;;;;;2106484;28;19924;-45
2022/08/26 00:43:51;;;;;;;;;;;;;;;;;;2106308;28;20030;-44
2022/08/26 00:44:53;;;;;;;;;;;;;;;;;;2106015;28;20015;-44
2022/08/26 00:45:53;;;;;;;;;;;;;;;;;;2106267;28;19977;-44
2022/08/26 00:46:54;;;;;;;;;;;;;;;;;;2106249;28;19981;-45
2022/08/26 00:47:55;;;;;;;;;;;;;;;;;;2106349;28;19930;-44
2022/08/26 00:48:56;;;;;;;;;;;;;;;;;;2106400;28;19931;-46
2022/08/26 00:49:57;;;;;;;;;;;;;;;;;;2106368;28;19924;-45
2022/08/26 00:50:58;;;;;;;;;;;;;;;;;;2106267;28;20007;-45
2022/08/26 00:51:59;;;;;;;;;;;;;;;;;;2106149;28;20426;-45
2022/08/26 00:53:00;;;;;;;;;;;;;;;;;;2106277;28;19925;-46
2022/08/26 00:54:01;;;;;;;;;;;;;;;;;;2106256;28;19924;-44
2022/08/26 00:55:02;;;;;;;;;;;;;;;;;;2106381;28;19924;-44
2022/08/26 00:56:03;;;;;;;;;;;;;;;;;;2106239;28;19931;-44
2022/08/26 00:57:04;;;;;;;;;;;;;;;;;;2106047;28;19935;-48
2022/08/26 00:58:05;;;;;;;;;;;;;;;;;;2106270;28;20363;-45
2022/08/26 00:59:06;;;;;;;;;;;;;;;;;;2106166;28;19924;-44
2022/08/26 01:00:06;;;;;;;;;;;;;;;;;;2106274;28;20314;-44
2022/08/26 01:01:07;;;;;;;;;;;;;;;;;;2106298;28;19974;-45
2022/08/26 01:02:08;;;;;;;;;;;;;;;;;;2106193;28;19924;-45
2022/08/26 01:03:09;;;;;;;;;;;;;;;;;;2106115;28;19967;-44
2022/08/26 01:04:11;;;;;;;;;;;;;;;;;;2106122;28;19924;-47
2022/08/26 01:05:12;;;;;;;;;;;;;;;;;;2106137;28;19928;-44
2022/08/26 01:06:13;;;;;;;;;;;;;;;;;;2106225;28;20007;-44
2022/08/26 01:07:15;;;;;;;;;;;;;;;;;;2106273;28;19928;-45
2022/08/26 01:08:15;;;;;;;;;;;;;;;;;;2106097;28;20014;-45
2022/08/26 01:09:16;;;;;;;;;;;;;;;;;;2106335;28;19924;-44
2022/08/26 01:10:17;;;;;;;;;;;;;;;;;;2106136;28;19924;-44
2022/08/26 01:11:18;;;;;;;;;;;;;;;;;;2106211;28;19924;-44
2022/08/26 01:12:19;;;;;;;;;;;;;;;;;;2106112;28;20020;-45
2022/08/26 01:13:22;;;;;;;;;;;;;;;;;;2106546;28;19932;-45
2022/08/26 01:14:23;;;;;;;;;;;;;;;;;;2106152;28;19976;-44
2022/08/26 01:15:24;;;;;;;;;;;;;;;;;;2106237;28;19928;-46
2022/08/26 01:16:25;;;;;;;;;;;;;;;;;;2106018;28;20015;-45
2022/08/26 01:17:26;;;;;;;;;;;;;;;;;;2106224;28;19928;-45
2022/08/26 01:18:27;;;;;;;;;;;;;;;;;;2106284;28;19949;-47
2022/08/26 01:19:28;;;;;;;;;;;;;;;;;;2106138;28;19925;-47
2022/08/26 01:20:28;;;;;;;;;;;;;;;;;;2106119;28;19931;-45
2022/08/26 01:21:29;;;;;;;;;;;;;;;;;;2106147;28;19924;-45
2022/08/26 01:22:30;;;;;;;;;;;;;;;;;;2106142;28;19931;-46
2022/08/26 01:23:31;;;;;;;;;;;;;;;;;;2106346;28;19924;-45
2022/08/26 01:24:32;;;;;;;;;;;;;;;;;;2106175;28;19986;-44
2022/08/26 01:25:33;;;;;;;;;;;;;;;;;;2106161;28;19932;-45
2022/08/26 01:26:33;;;;;;;;;;;;;;;;;;2105987;28;19968;-45
2022/08/26 01:27:35;;;;;;;;;;;;;;;;;;2105999;28;19928;-44
2022/08/26 01:28:36;;;;;;;;;;;;;;;;;;2106028;28;20015;-45
2022/08/26 01:29:37;;;;;;;;;;;;;;;;;;2106231;28;19946;-45
2022/08/26 01:30:38;;;;;;;;;;;;;;;;;;2105995;28;20011;-45
2022/08/26 01:31:40;;;;;;;;;;;;;;;;;;2106124;28;20006;-46
2022/08/26 01:32:41;;;;;;;;;;;;;;;;;;2105985;28;20010;-47
2022/08/26 01:33:42;;;;;;;;;;;;;;;;;;2106005;28;19924;-44
2022/08/26 01:34:42;;;;;;;;;;;;;;;;;;2106035;28;20342;-44
2022/08/26 01:35:43;;;;;;;;;;;;;;;;;;2106022;28;19976;-44
2022/08/26 01:36:44;;;;;;;;;;;;;;;;;;2106006;28;19986;-46
2022/08/26 01:37:49;;;;;;;;;;;;;;;;;;2106126;28;19977;-46
2022/08/26 01:38:50;;;;;;;;;;;;;;;;;;2106031;28;20495;-45
2022/08/26 01:39:51;;;;;;;;;;;;;;;;;;2105995;28;19923;-44
2022/08/26 01:40:52;;;;;;;;;;;;;;;;;;2106168;28;20293;-47
2022/08/26 01:41:55;;;;;;;;;;;;;;;;;;2105866;28;20539;-45
2022/08/26 01:42:56;;;;;;;;;;;;;;;;;;2106026;28;20045;-46
2022/08/26 01:43:57;;;;;;;;;;;;;;;;;;2106008;28;19924;-46
2022/08/26 01:44:58;;;;;;;;;;;;;;;;;;2105923;28;20408;-48
2022/08/26 01:45:59;;;;;;;;;;;;;;;;;;2106005;28;20014;-45
2022/08/26 01:47:00;;;;;;;;;;;;;;;;;;2106028;28;19956;-45
2022/08/26 01:48:01;;;;;;;;;;;;;;;;;;2106059;28;19924;-47
2022/08/26 01:49:02;;;;;;;;;;;;;;;;;;2105951;28;20340;-44
2022/08/26 01:50:03;;;;;;;;;;;;;;;;;;2106347;28;20015;-44
2022/08/26 01:51:04;;;;;;;;;;;;;;;;;;2106173;28;20297;-45
2022/08/26 01:52:05;;;;;;;;;;;;;;;;;;2105895;28;19928;-45
2022/08/26 01:53:06;;;;;;;;;;;;;;;;;;2105909;28;19924;-44
2022/08/26 01:54:07;;;;;;;;;;;;;;;;;;2106061;28;19925;-47
2022/08/26 01:55:08;;;;;;;;;;;;;;;;;;2105842;28;20022;-47
2022/08/26 01:56:09;;;;;;;;;;;;;;;;;;2105915;28;20002;-47
2022/08/26 01:57:09;;;;;;;;;;;;;;;;;;2106846;28;19967;-44
2022/08/26 01:58:10;;;;;;;;;;;;;;;;;;2107345;28;20342;-45
2022/08/26 01:59:11;;;;;;;;;;;;;;;;;;2107447;28;20023;-45
2022/08/26 02:00:12;;;;;;;;;;;;;;;;;;2107533;28;19970;-45
2022/08/26 02:01:13;;;;;;;;;;;;;;;;;;2107386;28;20035;-46
2022/08/26 02:02:14;;;;;;;;;;;;;;;;;;2107358;28;19927;-44
2022/08/26 02:03:20;;;;;;;;;;;;;;;;;;2107506;28;20478;-45
2022/08/26 02:04:21;;;;;;;;;;;;;;;;;;2107159;28;20401;-45
2022/08/26 02:05:22;;;;;;;;;;;;;;;;;;2107561;28;20066;-44
2022/08/26 02:06:23;;;;;;;;;;;;;;;;;;2107232;28;19928;-45
2022/08/26 02:07:23;;;;;;;;;;;;;;;;;;2107382;28;19974;-44
2022/08/26 02:08:24;;;;;;;;;;;;;;;;;;2107430;28;19935;-46
2022/08/26 02:09:25;;;;;;;;;;;;;;;;;;2107285;28;20331;-46
2022/08/26 02:10:26;;;;;;;;;;;;;;;;;;2107267;28;19928;-44
2022/08/26 02:11:27;;;;;;;;;;;;;;;;;;2107067;28;19935;-45
2022/08/26 02:12:28;;;;;;;;;;;;;;;;;;2107435;28;19924;-46
2022/08/26 02:13:30;;;;;;;;;;;;;;;;;;2107322;28;20019;-44
2022/08/26 02:14:31;;;;;;;;;;;;;;;;;;2107186;28;20381;-45
2022/08/26 02:15:33;;;;;;;;;;;;;;;;;;2107447;28;19931;-47
2022/08/26 02:16:34;;;;;;;;;;;;;;;;;;2107208;28;20031;-45
2022/08/26 02:17:35;;;;;;;;;;;;;;;;;;2107188;28;20448;-45
2022/08/26 02:18:36;;;;;;;;;;;;;;;;;;2107404;28;19931;-45
2022/08/26 02:19:36;;;;;;;;;;;;;;;;;;2107386;28;19924;-45
2022/08/26 02:20:37;;;;;;;;;;;;;;;;;;2107232;28;20300;-45
2022/08/26 02:21:39;;;;;;;;;;;;;;;;;;2107473;28;19969;-44
2022/08/26 02:22:40;;;;;;;;;;;;;;;;;;2107306;28;19924;-46
2022/08/26 02:23:41;;;;;;;;;;;;;;;;;;2107276;28;20154;-45
2022/08/26 02:24:42;;;;;;;;;;;;;;;;;;2107096;28;19930;-45
2022/08/26 02:25:43;;;;;;;;;;;;;;;;;;2107264;28;19924;-45
2022/08/26 02:26:44;;;;;;;;;;;;;;;;;;2107060;28;20283;-44
2022/08/26 02:27:46;;;;;;;;;;;;;;;;;;2107362;28;20040;-44
2022/08/26 02:28:47;;;;;;;;;;;;;;;;;;2107121;28;20036;-45
2022/08/26 02:29:48;;;;;;;;;;;;;;;;;;2107298;28;20014;-44
2022/08/26 02:30:49;;;;;;;;;;;;;;;;;;2107169;28;20373;-44
2022/08/26 02:31:49;;;;;;;;;;;;;;;;;;2107013;28;19969;-45
2022/08/26 02:32:50;;;;;;;;;;;;;;;;;;2107188;28;19924;-44
2022/08/26 02:33:51;;;;;;;;;;;;;;;;;;2107154;28;20036;-45
2022/08/26 02:34:52;;;;;;;;;;;;;;;;;;2107259;28;19928;-43
2022/08/26 02:35:53;;;;;;;;;;;;;;;;;;2107098;28;19946;-43
2022/08/26 02:36:55;;;;;;;;;;;;;;;;;;2107122;28;19924;-44
2022/08/26 02:37:56;;;;;;;;;;;;;;;;;;2107110;28;19924;-45
2022/08/26 02:38:57;;;;;;;;;;;;;;;;;;2107123;28;20035;-46
2022/08/26 02:39:58;;;;;;;;;;;;;;;;;;2107171;28;20023;-44
2022/08/26 02:40:59;;;;;;;;;;;;;;;;;;2107080;28;19924;-47
2022/08/26 02:42:00;;;;;;;;;;;;;;;;;;2107094;28;20007;-45
2022/08/26 02:43:01;;;;;;;;;;;;;;;;;;2107148;28;19924;-45
2022/08/26 02:44:02;;;;;;;;;;;;;;;;;;2107150;28;19938;-44
2022/08/26 02:45:03;;;;;;;;;;;;;;;;;;2106943;28;20013;-45
2022/08/26 02:46:04;;;;;;;;;;;;;;;;;;2107225;28;19924;-44
2022/08/26 02:47:05;;;;;;;;;;;;;;;;;;2107008;28;20010;-46
2022/08/26 02:48:07;;;;;;;;;;;;;;;;;;2107181;28;20315;-44
2022/08/26 02:49:08;;;;;;;;;;;;;;;;;;2107131;28;19924;-45
2022/08/26 02:50:09;;;;;;;;;;;;;;;;;;2107428;28;20019;-44
2022/08/26 02:51:10;;;;;;;;;;;;;;;;;;2106998;28;19935;-45
2022/08/26 02:52:11;;;;;;;;;;;;;;;;;;2107021;28;19984;-44
2022/08/26 02:53:12;;;;;;;;;;;;;;;;;;2107112;28;19924;-44
2022/08/26 02:54:14;;;;;;;;;;;;;;;;;;2107137;28;20015;-45
2022/08/26 02:55:15;;;;;;;;;;;;;;;;;;2107110;28;20010;-44
2022/08/26 02:56:15;;;;;;;;;;;;;;;;;;2106889;28;19925;-45
2022/08/26 02:57:16;;;;;;;;;;;;;;;;;;2106906;28;19964;-45
2022/08/26 02:58:17;;;;;;;;;;;;;;;;;;2106956;28;20336;-44
2022/08/26 02:59:18;;;;;;;;;;;;;;;;;;2107384;28;19977;-44
2022/08/26 03:00:23;;;;;;;;;;;;;;;;;;2107077;28;19924;-45
2022/08/26 03:01:24;;;;;;;;;;;;;;;;;;2106930;28;19989;-45
2022/08/26 03:02:25;;;;;;;;;;;;;;;;;;2107188;28;19934;-44
2022/08/26 03:03:26;;;;;;;;;;;;;;;;;;2106950;28;20378;-43
2022/08/26 03:04:27;;;;;;;;;;;;;;;;;;2107120;28;19928;-44
2022/08/26 03:05:27;;;;;;;;;;;;;;;;;;2106942;28;20029;-46
2022/08/26 03:06:28;;;;;;;;;;;;;;;;;;2106981;28;19928;-44
2022/08/26 03:07:29;;;;;;;;;;;;;;;;;;2106865;28;19997;-44
2022/08/26 03:08:30;;;;;;;;;;;;;;;;;;2106049;28;19956;-45
2022/08/26 03:09:31;;;;;;;;;;;;;;;;;;2106562;28;19977;-45
2022/08/26 03:10:32;;;;;;;;;;;;;;;;;;2106864;28;19924;-44
2022/08/26 03:11:33;;;;;;;;;;;;;;;;;;2106864;28;19991;-46
2022/08/26 03:12:34;;;;;;;;;;;;;;;;;;2106988;28;19924;-45
2022/08/26 03:13:35;;;;;;;;;;;;;;;;;;2107122;28;19928;-44
2022/08/26 03:14:36;;;;;;;;;;;;;;;;;;2107011;28;20011;-44
2022/08/26 03:15:37;;;;;;;;;;;;;;;;;;2106993;28;20023;-45
2022/08/26 03:16:37;;;;;;;;;;;;;;;;;;2106764;28;20289;-45
2022/08/26 03:17:38;;;;;;;;;;;;;;;;;;2106883;28;19931;-45
2022/08/26 03:18:39;;;;;;;;;;;;;;;;;;2106843;28;20322;-45
2022/08/26 03:19:40;;;;;;;;;;;;;;;;;;2107055;28;19924;-45
2022/08/26 03:20:41;;;;;;;;;;;;;;;;;;2106950;28;19946;-46
2022/08/26 03:21:42;;;;;;;;;;;;;;;;;;2106735;28;20035;-44
2022/08/26 03:22:43;;;;;;;;;;;;;;;;;;2106846;28;19924;-44
2022/08/26 03:23:44;;;;;;;;;;;;;;;;;;2107009;28;20022;-46
2022/08/26 03:24:45;;;;;;;;;;;;;;;;;;2106837;28;20289;-44
2022/08/26 03:25:47;;;;;;;;;;;;;;;;;;2106833;28;20004;-45
2022/08/26 03:26:48;;;;;;;;;;;;;;;;;;2106726;28;20841;-44
2022/08/26 03:27:53;;;;;;;;;;;;;;;;;;2106803;28;19931;-44
2022/08/26 03:31:32;;;;;;;;;;;;;;;;;;2106884;28;19924;-44
2022/08/26 03:32:34;;;;;;;;;;;;;;;;;;2107019;28;19932;-44
2022/08/26 03:33:34;;;;;;;;;;;;;;;;;;2106751;28;19935;-45
2022/08/26 03:34:36;;;;;;;;;;;;;;;;;;2107009;28;19935;-45
2022/08/26 03:35:37;;;;;;;;;;;;;;;;;;2106785;28;19924;-44
2022/08/26 03:36:38;;;;;;;;;;;;;;;;;;2106731;28;19924;-45
2022/08/26 03:37:39;;;;;;;;;;;;;;;;;;2106750;28;20312;-44
2022/08/26 03:38:40;;;;;;;;;;;;;;;;;;2106730;28;19930;-45
2022/08/26 03:39:41;;;;;;;;;;;;;;;;;;2106885;28;19924;-43
2022/08/26 03:40:42;;;;;;;;;;;;;;;;;;2107045;28;19924;-44
2022/08/26 03:41:43;;;;;;;;;;;;;;;;;;2106521;28;20376;-43
2022/08/26 03:42:44;;;;;;;;;;;;;;;;;;2106658;28;20369;-45
2022/08/26 03:43:47;;;;;;;;;;;;;;;;;;2106968;28;19924;-45
2022/08/26 03:44:48;;;;;;;;;;;;;;;;;;2106523;28;19924;-45
2022/08/26 03:45:48;;;;;;;;;;;;;;;;;;2106673;28;19930;-44
2022/08/26 03:46:51;;;;;;;;;;;;;;;;;;2106629;28;20292;-44
2022/08/26 03:47:52;;;;;;;;;;;;;;;;;;2106649;28;19931;-46
2022/08/26 03:48:53;;;;;;;;;;;;;;;;;;2106672;28;20384;-44
2022/08/26 03:49:53;;;;;;;;;;;;;;;;;;2106948;28;20011;-46
2022/08/26 03:50:54;;;;;;;;;;;;;;;;;;2106775;28;19955;-45
2022/08/26 03:51:55;;;;;;;;;;;;;;;;;;2106682;28;20023;-45
2022/08/26 03:52:56;;;;;;;;;;;;;;;;;;2106805;28;20032;-46
2022/08/26 03:53:59;;;;;;;;;;;;;;;;;;2106671;28;20392;-48
2022/08/26 03:55:00;;;;;;;;;;;;;;;;;;2106780;28;20011;-45
2022/08/26 03:56:01;;;;;;;;;;;;;;;;;;2106641;28;20196;-45
2022/08/26 03:57:03;;;;;;;;;;;;;;;;;;2106418;28;20031;-44
2022/08/26 03:58:03;;;;;;;;;;;;;;;;;;2106637;28;19924;-45
2022/08/26 03:59:04;;;;;;;;;;;;;;;;;;2106649;28;19928;-47
2022/08/26 04:00:05;;;;;;;;;;;;;;;;;;2106620;28;20102;-45
2022/08/26 04:01:06;;;;;;;;;;;;;;;;;;2106547;28;20053;-45
2022/08/26 04:02:07;;;;;;;;;;;;;;;;;;2106644;28;19960;-45
2022/08/26 04:03:10;;;;;;;;;;;;;;;;;;2106573;28;19976;-45
2022/08/26 04:04:12;;;;;;;;;;;;;;;;;;2106569;28;19955;-44
2022/08/26 04:05:16;;;;;;;;;;;;;;;;;;2106224;28;19969;-44
2022/08/26 04:06:16;;;;;;;;;;;;;;;;;;2106540;28;19927;-46
2022/08/26 04:07:18;;;;;;;;;;;;;;;;;;2106509;28;20015;-45
2022/08/26 04:08:18;;;;;;;;;;;;;;;;;;2106584;28;20012;-44
2022/08/26 04:09:19;;;;;;;;;;;;;;;;;;2106474;28;20490;-45
2022/08/26 04:10:22;;;;;;;;;;;;;;;;;;2106786;28;20032;-45
2022/08/26 04:11:30;;;;;;;;;;;;;;;;;;2106269;28;20385;-45
2022/08/26 04:12:31;;;;;;;;;;;;;;;;;;2106730;28;20007;-44
2022/08/26 04:13:32;;;;;;;;;;;;;;;;;;2106537;28;19968;-45
2022/08/26 04:14:34;;;;;;;;;;;;;;;;;;2106597;28;19930;-44
2022/08/26 04:15:35;;;;;;;;;;;;;;;;;;2106541;28;20023;-46
2022/08/26 04:16:36;;;;;;;;;;;;;;;;;;2106678;28;20225;-45
2022/08/26 04:17:37;;;;;;;;;;;;;;;;;;2106513;28;19969;-45
2022/08/26 04:18:37;;;;;;;;;;;;;;;;;;2106694;28;19924;-47
2022/08/26 04:19:41;;;;;;;;;;;;;;;;;;2105986;28;19950;-45
2022/08/26 04:20:42;;;;;;;;;;;;;;;;;;2106592;28;19963;-46
2022/08/26 04:21:42;;;;;;;;;;;;;;;;;;2106433;28;19924;-45
2022/08/26 04:22:43;;;;;;;;;;;;;;;;;;2106512;28;19924;-45
2022/08/26 04:23:44;;;;;;;;;;;;;;;;;;2106368;28;19978;-44
2022/08/26 04:24:47;;;;;;;;;;;;;;;;;;2106510;28;19924;-45
2022/08/26 04:25:48;;;;;;;;;;;;;;;;;;2106512;28;20401;-45
2022/08/26 04:26:49;;;;;;;;;;;;;;;;;;2106264;28;20365;-47
2022/08/26 04:27:50;;;;;;;;;;;;;;;;;;2106510;28;19931;-44
2022/08/26 04:28:50;;;;;;;;;;;;;;;;;;2106610;28;20019;-45
2022/08/26 04:29:52;;;;;;;;;;;;;;;;;;2106503;28;19924;-45
2022/08/26 04:30:56;;;;;;;;;;;;;;;;;;2106369;28;20027;-45
2022/08/26 04:31:57;;;;;;;;;;;;;;;;;;2106458;28;19928;-45
2022/08/26 04:32:58;;;;;;;;;;;;;;;;;;2106527;28;20542;-44
2022/08/26 04:33:59;;;;;;;;;;;;;;;;;;2106467;28;20001;-48
2022/08/26 04:34:59;;;;;;;;;;;;;;;;;;2106420;28;20015;-45
2022/08/26 04:36:01;;;;;;;;;;;;;;;;;;2106217;28;19977;-45
2022/08/26 04:37:01;;;;;;;;;;;;;;;;;;2106416;28;20434;-45
2022/08/26 04:38:03;;;;;;;;;;;;;;;;;;2106533;28;20015;-44
2022/08/26 04:39:04;;;;;;;;;;;;;;;;;;2106339;28;20010;-45
2022/08/26 04:40:05;;;;;;;;;;;;;;;;;;2106415;28;20422;-46
2022/08/26 04:41:06;;;;;;;;;;;;;;;;;;2106521;28;19932;-45
2022/08/26 04:42:15;;;;;;;;;;;;;;;;;;2106256;28;19928;-48
2022/08/26 04:43:20;;;;;;;;;;;;;;;;;;2106346;28;20014;-45
2022/08/26 04:44:21;;;;;;;;;;;;;;;;;;2106503;28;20016;-46
2022/08/26 04:45:21;;;;;;;;;;;;;;;;;;2106155;28;20376;-45
2022/08/26 04:46:23;;;;;;;;;;;;;;;;;;2106226;28;19924;-45
2022/08/26 04:47:23;;;;;;;;;;;;;;;;;;2106660;28;19924;-46
2022/08/26 04:48:27;;;;;;;;;;;;;;;;;;2106282;28;19924;-46
2022/08/26 04:49:28;;;;;;;;;;;;;;;;;;2106508;28;20006;-46
2022/08/26 04:50:28;;;;;;;;;;;;;;;;;;2106357;28;20006;-46
2022/08/26 04:51:29;;;;;;;;;;;;;;;;;;2106561;28;20282;-46
2022/08/26 04:52:30;;;;;;;;;;;;;;;;;;2106371;28;20286;-47
2022/08/26 04:53:31;;;;;;;;;;;;;;;;;;2106995;28;20027;-47
2022/08/26 04:54:32;;;;;;;;;;;;;;;;;;2106236;28;19925;-46
2022/08/26 04:55:33;;;;;;;;;;;;;;;;;;2106481;28;20065;-45
2022/08/26 04:56:40;;;;;;;;;;;;;;;;;;2106390;28;20281;-47
2022/08/26 04:57:41;;;;;;;;;;;;;;;;;;2106570;28;20015;-46
2022/08/26 04:58:42;;;;;;;;;;;;;;;;;;2106316;28;19945;-46
2022/08/26 04:59:43;;;;;;;;;;;;;;;;;;2106309;28;19956;-47
2022/08/26 05:00:44;;;;;;;;;;;;;;;;;;2106357;28;19949;-45
2022/08/26 05:01:45;;;;;;;;;;;;;;;;;;2106200;28;19935;-46
2022/08/26 05:02:47;;;;;;;;;;;;;;;;;;2106416;28;19974;-46
2022/08/26 05:03:48;;;;;;;;;;;;;;;;;;2106079;28;20361;-45
2022/08/26 05:04:48;;;;;;;;;;;;;;;;;;2106302;28;19963;-44
2022/08/26 05:05:49;;;;;;;;;;;;;;;;;;2106333;28;20328;-45
2022/08/26 05:06:50;;;;;;;;;;;;;;;;;;2106032;28;19947;-45
2022/08/26 05:07:52;;;;;;;;;;;;;;;;;;2106212;28;19924;-46
2022/08/26 05:08:53;;;;;;;;;;;;;;;;;;2106175;28;19974;-45
2022/08/26 05:09:54;;;;;;;;;;;;;;;;;;2106220;28;19924;-45
2022/08/26 05:10:55;;;;;;;;;;;;;;;;;;2106300;28;19928;-45
2022/08/26 05:11:56;;;;;;;;;;;;;;;;;;2105836;28;20373;-48
2022/08/26 05:12:59;;;;;;;;;;;;;;;;;;2106209;28;19959;-45
2022/08/26 05:14:00;;;;;;;;;;;;;;;;;;2106422;28;20300;-45
2022/08/26 05:15:02;;;;;;;;;;;;;;;;;;2106219;28;20129;-45
2022/08/26 05:16:03;;;;;;;;;;;;;;;;;;2106256;28;19969;-46
2022/08/26 05:17:04;;;;;;;;;;;;;;;;;;2106193;28;19931;-46
2022/08/26 05:18:05;;;;;;;;;;;;;;;;;;2106107;28;19971;-47
2022/08/26 05:19:06;;;;;;;;;;;;;;;;;;2106655;28;19924;-46
2022/08/26 05:20:07;;;;;;;;;;;;;;;;;;2106445;28;20028;-46
2022/08/26 05:21:10;;;;;;;;;;;;;;;;;;2106061;28;20365;-46
2022/08/26 05:22:12;;;;;;;;;;;;;;;;;;2106160;28;19997;-45
2022/08/26 05:23:13;;;;;;;;;;;;;;;;;;2106325;28;20198;-45
2022/08/26 05:24:14;;;;;;;;;;;;;;;;;;2106079;28;19932;-46
2022/08/26 05:25:15;;;;;;;;;;;;;;;;;;2106037;28;20278;-49
2022/08/26 05:26:16;;;;;;;;;;;;;;;;;;2106005;28;19969;-46
2022/08/26 05:27:16;;;;;;;;;;;;;;;;;;2106225;28;19924;-44
2022/08/26 05:28:17;;;;;;;;;;;;;;;;;;2106142;28;20313;-45
2022/08/26 05:29:18;;;;;;;;;;;;;;;;;;2106080;28;20396;-46
2022/08/26 05:30:19;;;;;;;;;;;;;;;;;;2106078;28;19931;-47
2022/08/26 05:31:20;;;;;;;;;;;;;;;;;;2105937;28;19961;-45
2022/08/26 05:32:21;;;;;;;;;;;;;;;;;;2107283;28;20398;-45
2022/08/26 05:33:22;;;;;;;;;;;;;;;;;;2107483;28;20390;-45
2022/08/26 05:34:23;;;;;;;;;;;;;;;;;;2107669;28;19964;-46
2022/08/26 05:35:24;;;;;;;;;;;;;;;;;;2107625;28;19966;-46
2022/08/26 05:36:25;;;;;;;;;;;;;;;;;;2107692;28;20385;-46
2022/08/26 05:37:27;;;;;;;;;;;;;;;;;;2107594;28;19936;-45
2022/08/26 05:38:28;;;;;;;;;;;;;;;;;;2107516;28;19924;-46
2022/08/26 05:39:30;;;;;;;;;;;;;;;;;;2107564;28;20522;-45
2022/08/26 05:40:31;;;;;;;;;;;;;;;;;;2107406;28;20009;-48
2022/08/26 05:41:33;;;;;;;;;;;;;;;;;;2107568;28;19924;-45
2022/08/26 05:42:34;;;;;;;;;;;;;;;;;;2107938;28;20149;-47
2022/08/26 05:43:35;;;;;;;;;;;;;;;;;;2107573;28;19928;-46
2022/08/26 05:44:36;;;;;;;;;;;;;;;;;;2107598;28;19974;-45
2022/08/26 05:45:55;;;;;;;;;;;;;;;;;;2107842;28;19925;-45
2022/08/26 05:46:55;;;;;;;;;;;;;;;;;;2107502;28;19924;-47
2022/08/26 05:47:57;;;;;;;;;;;;;;;;;;2107580;28;19924;-45
2022/08/26 05:48:58;;;;;;;;;;;;;;;;;;2107570;28;19971;-45
2022/08/26 05:49:59;;;;;;;;;;;;;;;;;;2107481;28;20007;-45
2022/08/26 05:51:00;;;;;;;;;;;;;;;;;;2107395;28;19989;-47
2022/08/26 05:52:01;;;;;;;;;;;;;;;;;;2107531;28;19955;-45
2022/08/26 05:53:02;;;;;;;;;;;;;;;;;;2107773;28;19924;-46
2022/08/26 05:54:03;;;;;;;;;;;;;;;;;;2107425;28;19966;-44
2022/08/26 05:55:04;;;;;;;;;;;;;;;;;;2107549;28;19924;-45
2022/08/26 05:56:05;;;;;;;;;;;;;;;;;;2107562;28;19967;-45
2022/08/26 05:57:05;;;;;;;;;;;;;;;;;;2107450;28;20205;-46
2022/08/26 05:58:07;;;;;;;;;;;;;;;;;;2107172;28;20436;-46
2022/08/26 05:59:08;;;;;;;;;;;;;;;;;;2107292;28;19924;-45
2022/08/26 06:00:14;;;;;;;;;;;;;;;;;;2107586;28;19931;-45
2022/08/26 06:01:15;;;;;;;;;;;;;;;;;;2107264;28;20013;-45
2022/08/26 06:02:16;;;;;;;;;;;;;;;;;;2107250;28;19924;-46
2022/08/26 06:03:17;;;;;;;;;;;;;;;;;;2107548;28;19924;-45
2022/08/26 06:04:18;;;;;;;;;;;;;;;;;;2107528;28;19932;-45
2022/08/26 06:05:20;;;;;;;;;;;;;;;;;;2107219;28;20023;-46
2022/08/26 06:06:21;;;;;;;;;;;;;;;;;;2107689;28;19931;-44
2022/08/26 06:08:44;;;;;;;;;;;;;;;;;;2106589;28;20042;-44
2022/08/26 06:09:44;;;;;;;;;;;;;;;;;;2107290;28;19985;-44
2022/08/26 06:10:45;;;;;;;;;;;;;;;;;;2107467;28;19981;-44
2022/08/26 06:11:46;;;;;;;;;;;;;;;;;;2107120;28;20003;-44
2022/08/26 06:12:47;;;;;;;;;;;;;;;;;;2107893;28;19924;-45
2022/08/26 06:13:48;;;;;;;;;;;;;;;;;;2107672;28;19924;-43
2022/08/26 06:14:50;;;;;;;;;;;;;;;;;;2107252;28;20016;-44
2022/08/26 06:15:51;;;;;;;;;;;;;;;;;;2107295;28;20102;-44
2022/08/26 06:16:51;;;;;;;;;;;;;;;;;;2107485;28;19924;-43
2022/08/26 06:17:52;;;;;;;;;;;;;;;;;;2107437;28;20055;-44
2022/08/26 06:18:53;;;;;;;;;;;;;;;;;;2107626;28;19951;-45
2022/08/26 06:19:54;;;;;;;;;;;;;;;;;;2107428;28;19967;-45
2022/08/26 06:20:55;;;;;;;;;;;;;;;;;;2107295;28;19928;-45
2022/08/26 06:25:36;;;;;;;;;;;;;;;;;;2107207;28;19930;-45
2022/08/26 06:26:01;;;;;;;;;;;;;;;;;;2107521;28;19963;-43
2022/08/26 06:27:02;;;;;;;;;;;;;;;;;;2107220;28;20011;-43
2022/08/26 06:28:04;;;;;;;;;;;;;;;;;;2107220;28;20266;-43
2022/08/26 06:29:05;;;;;;;;;;;;;;;;;;2107657;28;19924;-43
2022/08/26 06:30:05;;;;;;;;;;;;;;;;;;2107389;28;20026;-43
2022/08/26 06:31:06;;;;;;;;;;;;;;;;;;2107383;28;20289;-42
2022/08/26 06:32:07;;;;;;;;;;;;;;;;;;2107048;28;19924;-44
2022/08/26 06:33:09;;;;;;;;;;;;;;;;;;2107569;28;20425;-47
2022/08/26 06:34:10;;;;;;;;;;;;;;;;;;2107096;28;20427;-46
2022/08/26 06:35:11;;;;;;;;;;;;;;;;;;2107319;28;20023;-43
2022/08/26 06:36:12;;;;;;;;;;;;;;;;;;2107008;28;20510;-43
2022/08/26 06:37:13;;;;;;;;;;;;;;;;;;2107885;28;20350;-44
2022/08/26 06:38:14;;;;;;;;;;;;;;;;;;2107330;28;19924;-42
2022/08/26 06:39:15;;;;;;;;;;;;;;;;;;2107201;28;19935;-43
2022/08/26 06:40:16;;;;;;;;;;;;;;;;;;2107551;28;19924;-43
2022/08/26 06:41:19;;;;;;;;;;;;;;;;;;2106984;28;19928;-44
2022/08/26 06:42:21;;;;;;;;;;;;;;;;;;2107474;28;19924;-43
2022/08/26 06:43:22;;;;;;;;;;;;;;;;;;2106898;28;19924;-45
2022/08/26 06:44:23;;;;;;;;;;;;;;;;;;2107203;28;19974;-44
2022/08/26 06:45:24;;;;;;;;;;;;;;;;;;2106979;28;19924;-43
2022/08/26 06:46:25;;;;;;;;;;;;;;;;;;2107029;28;19928;-43
2022/08/26 06:47:26;;;;;;;;;;;;;;;;;;2107154;28;20065;-44
2022/08/26 06:48:27;;;;;;;;;;;;;;;;;;2107259;28;19985;-43
2022/08/26 06:49:28;;;;;;;;;;;;;;;;;;2107542;28;20450;-49
2022/08/26 06:50:29;;;;;;;;;;;;;;;;;;2107189;28;19931;-43
2022/08/26 06:51:29;;;;;;;;;;;;;;;;;;2107025;28;20023;-44
2022/08/26 06:52:30;;;;;;;;;;;;;;;;;;2107678;28;19930;-43
2022/08/26 06:53:31;;;;;;;;;;;;;;;;;;2107402;28;19931;-44
2022/08/26 06:54:32;;;;;;;;;;;;;;;;;;2107533;28;19946;-43
2022/08/26 06:55:35;;;;;;;;;;;;;;;;;;2106944;28;20050;-43
2022/08/26 06:56:36;;;;;;;;;;;;;;;;;;2107162;28;19932;-43
2022/08/26 06:57:37;;;;;;;;;;;;;;;;;;2106917;28;20014;-43
2022/08/26 06:58:40;;;;;;;;;;;;;;;;;;2107030;28;20367;-43
2022/08/26 06:59:41;;;;;;;;;;;;;;;;;;2107094;28;20003;-44
2022/08/26 07:00:42;;;;;;;;;;;;;;;;;;2107311;28;19924;-45
2022/08/26 07:01:47;;;;;;;;;;;;;;;;;;2107158;28;20442;-45
2022/08/26 07:02:48;;;;;;;;;;;;;;;;;;2107000;28;20078;-45
2022/08/26 07:03:49;;;;;;;;;;;;;;;;;;2107167;28;20377;-46
2022/08/26 07:04:50;;;;;;;;;;;;;;;;;;2107120;28;19928;-46
2022/08/26 07:05:51;;;;;;;;;;;;;;;;;;2106897;28;20408;-46